sensor_id;sensor_type;location;lat;lon;timestamp;P1;durP1;ratioP1;P2;durP2;ratioP2
14300;SDS011;7234;59.306;18.024;2024-02-23T00:01:06;14.13;;;9.13;;
14300;SDS011;7234;59.306;18.024;2024-02-23T00:03:35;15.70;;;9.10;;
14300;SDS011;7234;59.306;18.024;2024-02-23T00:06:04;18.50;;;9.40;;
14300;SDS011;7234;59.306;18.024;2024-02-23T00:08:31;15.77;;;8.73;;
14300;SDS011;7234;59.306;18.024;2024-02-23T00:10:58;17.80;;;9.23;;
14300;SDS011;7234;59.306;18.024;2024-02-23T00:13:27;21.73;;;10.33;;
14300;SDS011;7234;59.306;18.024;2024-02-23T00:15:57;11.87;;;8.47;;
14300;SDS011;7234;59.306;18.024;2024-02-23T00:18:24;15.87;;;8.67;;
14300;SDS011;7234;59.306;18.024;2024-02-23T00:20:51;18.47;;;9.77;;
14300;SDS011;7234;59.306;18.024;2024-02-23T00:23:18;13.13;;;9.13;;
14300;SDS011;7234;59.306;18.024;2024-02-23T00:25:45;19.53;;;10.27;;
14300;SDS011;7234;59.306;18.024;2024-02-23T00:28:15;17.07;;;10.63;;
14300;SDS011;7234;59.306;18.024;2024-02-23T00:30:44;17.57;;;10.13;;
14300;SDS011;7234;59.306;18.024;2024-02-23T00:33:15;20.93;;;11.23;;
14300;SDS011;7234;59.306;18.024;2024-02-23T00:35:42;17.80;;;10.87;;
14300;SDS011;7234;59.306;18.024;2024-02-23T00:38:12;17.77;;;11.57;;
14300;SDS011;7234;59.306;18.024;2024-02-23T00:40:42;23.90;;;12.33;;
14300;SDS011;7234;59.306;18.024;2024-02-23T00:43:09;20.50;;;12.13;;
14300;SDS011;7234;59.306;18.024;2024-02-23T00:45:36;22.77;;;12.33;;
14300;SDS011;7234;59.306;18.024;2024-02-23T00:48:05;22.03;;;12.63;;
14300;SDS011;7234;59.306;18.024;2024-02-23T00:50:32;23.07;;;13.40;;
14300;SDS011;7234;59.306;18.024;2024-02-23T00:53:00;20.23;;;12.50;;
14300;SDS011;7234;59.306;18.024;2024-02-23T00:55:27;23.83;;;12.23;;
14300;SDS011;7234;59.306;18.024;2024-02-23T00:57:54;18.07;;;12.27;;
14300;SDS011;7234;59.306;18.024;2024-02-23T01:00:21;24.93;;;13.27;;
14300;SDS011;7234;59.306;18.024;2024-02-23T01:02:48;23.43;;;12.93;;
14300;SDS011;7234;59.306;18.024;2024-02-23T01:05:19;22.70;;;11.70;;
14300;SDS011;7234;59.306;18.024;2024-02-23T01:07:46;25.43;;;11.77;;
14300;SDS011;7234;59.306;18.024;2024-02-23T01:10:13;20.47;;;12.23;;
14300;SDS011;7234;59.306;18.024;2024-02-23T01:12:40;18.67;;;10.40;;
14300;SDS011;7234;59.306;18.024;2024-02-23T01:15:08;21.10;;;11.13;;
14300;SDS011;7234;59.306;18.024;2024-02-23T01:17:35;20.77;;;10.47;;
14300;SDS011;7234;59.306;18.024;2024-02-23T01:20:06;21.40;;;11.43;;
14300;SDS011;7234;59.306;18.024;2024-02-23T01:22:35;19.43;;;10.93;;
14300;SDS011;7234;59.306;18.024;2024-02-23T01:25:02;19.50;;;10.87;;
14300;SDS011;7234;59.306;18.024;2024-02-23T01:27:30;19.77;;;10.97;;
14300;SDS011;7234;59.306;18.024;2024-02-23T01:29:57;16.80;;;10.87;;
14300;SDS011;7234;59.306;18.024;2024-02-23T01:32:24;19.67;;;10.67;;
14300;SDS011;7234;59.306;18.024;2024-02-23T01:34:51;15.63;;;9.77;;
14300;SDS011;7234;59.306;18.024;2024-02-23T01:37:19;18.77;;;10.57;;
14300;SDS011;7234;59.306;18.024;2024-02-23T01:39:59;16.90;;;10.20;;
14300;SDS011;7234;59.306;18.024;2024-02-23T01:42:26;19.77;;;10.37;;
14300;SDS011;7234;59.306;18.024;2024-02-23T01:44:53;15.23;;;9.43;;
14300;SDS011;7234;59.306;18.024;2024-02-23T01:47:21;17.63;;;10.67;;
14300;SDS011;7234;59.306;18.024;2024-02-23T01:49:49;15.43;;;9.87;;
14300;SDS011;7234;59.306;18.024;2024-02-23T01:52:17;19.67;;;10.87;;
14300;SDS011;7234;59.306;18.024;2024-02-23T01:54:46;17.90;;;12.30;;
14300;SDS011;7234;59.306;18.024;2024-02-23T01:57:15;18.90;;;10.47;;
14300;SDS011;7234;59.306;18.024;2024-02-23T01:59:45;17.60;;;10.43;;
14300;SDS011;7234;59.306;18.024;2024-02-23T02:02:14;16.43;;;10.20;;
14300;SDS011;7234;59.306;18.024;2024-02-23T02:04:42;18.43;;;10.77;;
14300;SDS011;7234;59.306;18.024;2024-02-23T02:07:10;20.27;;;10.53;;
14300;SDS011;7234;59.306;18.024;2024-02-23T02:09:38;16.00;;;10.50;;
14300;SDS011;7234;59.306;18.024;2024-02-23T02:12:06;20.97;;;12.10;;
14300;SDS011;7234;59.306;18.024;2024-02-23T02:14:35;17.63;;;10.60;;
14300;SDS011;7234;59.306;18.024;2024-02-23T02:17:02;19.97;;;11.23;;
14300;SDS011;7234;59.306;18.024;2024-02-23T02:19:29;17.50;;;10.80;;
14300;SDS011;7234;59.306;18.024;2024-02-23T02:21:56;19.03;;;10.80;;
14300;SDS011;7234;59.306;18.024;2024-02-23T02:24:23;17.53;;;10.57;;
14300;SDS011;7234;59.306;18.024;2024-02-23T02:26:51;16.77;;;10.03;;
14300;SDS011;7234;59.306;18.024;2024-02-23T02:29:18;19.67;;;11.17;;
14300;SDS011;7234;59.306;18.024;2024-02-23T02:31:46;16.77;;;8.63;;
14300;SDS011;7234;59.306;18.024;2024-02-23T02:34:13;15.50;;;9.57;;
14300;SDS011;7234;59.306;18.024;2024-02-23T02:36:41;16.80;;;10.23;;
14300;SDS011;7234;59.306;18.024;2024-02-23T02:39:08;18.93;;;9.87;;
14300;SDS011;7234;59.306;18.024;2024-02-23T02:41:35;16.60;;;10.60;;
14300;SDS011;7234;59.306;18.024;2024-02-23T02:44:02;19.73;;;11.00;;
14300;SDS011;7234;59.306;18.024;2024-02-23T02:46:29;15.53;;;9.80;;
14300;SDS011;7234;59.306;18.024;2024-02-23T02:48:58;15.73;;;9.63;;
14300;SDS011;7234;59.306;18.024;2024-02-23T02:51:25;13.53;;;9.07;;
14300;SDS011;7234;59.306;18.024;2024-02-23T02:53:52;13.47;;;8.57;;
14300;SDS011;7234;59.306;18.024;2024-02-23T02:56:22;18.27;;;10.20;;
14300;SDS011;7234;59.306;18.024;2024-02-23T02:58:50;18.53;;;10.67;;
14300;SDS011;7234;59.306;18.024;2024-02-23T03:01:18;19.50;;;10.77;;
14300;SDS011;7234;59.306;18.024;2024-02-23T03:03:45;16.63;;;10.47;;
14300;SDS011;7234;59.306;18.024;2024-02-23T03:06:14;20.53;;;10.50;;
14300;SDS011;7234;59.306;18.024;2024-02-23T03:08:41;21.37;;;12.37;;
14300;SDS011;7234;59.306;18.024;2024-02-23T03:11:08;18.07;;;11.70;;
14300;SDS011;7234;59.306;18.024;2024-02-23T03:13:37;15.80;;;10.10;;
14300;SDS011;7234;59.306;18.024;2024-02-23T03:16:05;13.27;;;9.03;;
14300;SDS011;7234;59.306;18.024;2024-02-23T03:18:32;14.07;;;9.87;;
14300;SDS011;7234;59.306;18.024;2024-02-23T03:20:59;15.73;;;10.50;;
14300;SDS011;7234;59.306;18.024;2024-02-23T03:23:27;14.53;;;9.17;;
14300;SDS011;7234;59.306;18.024;2024-02-23T03:25:55;13.73;;;9.40;;
14300;SDS011;7234;59.306;18.024;2024-02-23T03:28:22;13.00;;;8.40;;
14300;SDS011;7234;59.306;18.024;2024-02-23T03:30:49;12.20;;;8.63;;
14300;SDS011;7234;59.306;18.024;2024-02-23T03:33:16;10.47;;;7.63;;
14300;SDS011;7234;59.306;18.024;2024-02-23T03:35:43;10.60;;;7.17;;
14300;SDS011;7234;59.306;18.024;2024-02-23T03:38:10;9.30;;;7.00;;
14300;SDS011;7234;59.306;18.024;2024-02-23T03:40:39;10.83;;;7.33;;
14300;SDS011;7234;59.306;18.024;2024-02-23T03:43:07;13.23;;;8.27;;
14300;SDS011;7234;59.306;18.024;2024-02-23T03:45:34;12.70;;;8.47;;
14300;SDS011;7234;59.306;18.024;2024-02-23T03:48:01;13.07;;;8.77;;
14300;SDS011;7234;59.306;18.024;2024-02-23T03:50:30;15.87;;;9.60;;
14300;SDS011;7234;59.306;18.024;2024-02-23T03:52:57;17.43;;;11.47;;
14300;SDS011;7234;59.306;18.024;2024-02-23T03:55:25;18.63;;;10.77;;
14300;SDS011;7234;59.306;18.024;2024-02-23T03:57:53;18.47;;;11.00;;
14300;SDS011;7234;59.306;18.024;2024-02-23T04:00:31;17.63;;;11.33;;
14300;SDS011;7234;59.306;18.024;2024-02-23T04:02:58;20.27;;;11.17;;
14300;SDS011;7234;59.306;18.024;2024-02-23T04:05:25;23.37;;;12.30;;
14300;SDS011;7234;59.306;18.024;2024-02-23T04:07:52;17.50;;;11.10;;
14300;SDS011;7234;59.306;18.024;2024-02-23T04:10:19;18.37;;;10.60;;
14300;SDS011;7234;59.306;18.024;2024-02-23T04:12:49;17.83;;;10.83;;
14300;SDS011;7234;59.306;18.024;2024-02-23T04:15:17;17.40;;;10.63;;
14300;SDS011;7234;59.306;18.024;2024-02-23T04:17:45;17.07;;;10.13;;
14300;SDS011;7234;59.306;18.024;2024-02-23T04:20:12;16.77;;;9.63;;
14300;SDS011;7234;59.306;18.024;2024-02-23T04:22:42;17.17;;;9.23;;
14300;SDS011;7234;59.306;18.024;2024-02-23T04:25:10;15.87;;;10.30;;
14300;SDS011;7234;59.306;18.024;2024-02-23T04:27:37;17.20;;;10.13;;
14300;SDS011;7234;59.306;18.024;2024-02-23T04:30:06;15.73;;;10.00;;
14300;SDS011;7234;59.306;18.024;2024-02-23T04:32:36;20.13;;;10.70;;
14300;SDS011;7234;59.306;18.024;2024-02-23T04:35:03;15.70;;;9.33;;
14300;SDS011;7234;59.306;18.024;2024-02-23T04:37:31;16.33;;;9.30;;
14300;SDS011;7234;59.306;18.024;2024-02-23T04:39:58;15.67;;;9.67;;
14300;SDS011;7234;59.306;18.024;2024-02-23T04:42:25;13.03;;;7.93;;
14300;SDS011;7234;59.306;18.024;2024-02-23T04:44:52;12.47;;;8.53;;
14300;SDS011;7234;59.306;18.024;2024-02-23T04:47:20;13.70;;;8.00;;
14300;SDS011;7234;59.306;18.024;2024-02-23T04:49:48;9.27;;;6.20;;
14300;SDS011;7234;59.306;18.024;2024-02-23T04:52:15;10.40;;;7.23;;
14300;SDS011;7234;59.306;18.024;2024-02-23T04:54:43;9.70;;;6.47;;
14300;SDS011;7234;59.306;18.024;2024-02-23T04:57:10;12.03;;;5.77;;
14300;SDS011;7234;59.306;18.024;2024-02-23T04:59:37;7.73;;;4.80;;
14300;SDS011;7234;59.306;18.024;2024-02-23T05:02:04;10.13;;;5.40;;
14300;SDS011;7234;59.306;18.024;2024-02-23T05:04:31;8.77;;;5.53;;
14300;SDS011;7234;59.306;18.024;2024-02-23T05:07:00;9.13;;;6.23;;
14300;SDS011;7234;59.306;18.024;2024-02-23T05:09:27;7.57;;;5.77;;
14300;SDS011;7234;59.306;18.024;2024-02-23T05:11:54;9.93;;;5.90;;
14300;SDS011;7234;59.306;18.024;2024-02-23T05:14:21;9.77;;;5.77;;
14300;SDS011;7234;59.306;18.024;2024-02-23T05:16:51;8.50;;;5.83;;
14300;SDS011;7234;59.306;18.024;2024-02-23T05:19:18;9.77;;;7.00;;
14300;SDS011;7234;59.306;18.024;2024-02-23T05:21:45;10.07;;;7.13;;
14300;SDS011;7234;59.306;18.024;2024-02-23T05:24:13;9.93;;;7.40;;
14300;SDS011;7234;59.306;18.024;2024-02-23T05:26:40;12.07;;;7.63;;
14300;SDS011;7234;59.306;18.024;2024-02-23T05:29:09;14.17;;;7.60;;
14300;SDS011;7234;59.306;18.024;2024-02-23T05:31:44;11.30;;;6.90;;
14300;SDS011;7234;59.306;18.024;2024-02-23T05:34:12;17.03;;;7.97;;
14300;SDS011;7234;59.306;18.024;2024-02-23T05:36:39;14.77;;;7.73;;
14300;SDS011;7234;59.306;18.024;2024-02-23T05:39:07;12.87;;;8.07;;
14300;SDS011;7234;59.306;18.024;2024-02-23T05:41:36;14.30;;;7.73;;
14300;SDS011;7234;59.306;18.024;2024-02-23T05:44:04;12.40;;;7.60;;
14300;SDS011;7234;59.306;18.024;2024-02-23T05:46:32;15.40;;;8.27;;
14300;SDS011;7234;59.306;18.024;2024-02-23T05:48:59;16.97;;;7.57;;
14300;SDS011;7234;59.306;18.024;2024-02-23T05:51:27;16.83;;;8.70;;
14300;SDS011;7234;59.306;18.024;2024-02-23T05:53:55;14.23;;;7.23;;
14300;SDS011;7234;59.306;18.024;2024-02-23T05:56:22;11.93;;;7.43;;
14300;SDS011;7234;59.306;18.024;2024-02-23T05:58:55;11.90;;;7.30;;
14300;SDS011;7234;59.306;18.024;2024-02-23T06:01:22;13.90;;;8.43;;
14300;SDS011;7234;59.306;18.024;2024-02-23T06:03:50;13.00;;;7.40;;
14300;SDS011;7234;59.306;18.024;2024-02-23T06:06:18;12.57;;;8.00;;
14300;SDS011;7234;59.306;18.024;2024-02-23T06:08:45;16.97;;;9.03;;
14300;SDS011;7234;59.306;18.024;2024-02-23T06:11:16;19.93;;;8.87;;
14300;SDS011;7234;59.306;18.024;2024-02-23T06:13:43;14.63;;;9.00;;
14300;SDS011;7234;59.306;18.024;2024-02-23T06:16:10;15.37;;;8.43;;
14300;SDS011;7234;59.306;18.024;2024-02-23T06:18:38;10.03;;;6.93;;
14300;SDS011;7234;59.306;18.024;2024-02-23T06:21:10;11.40;;;7.17;;
14300;SDS011;7234;59.306;18.024;2024-02-23T06:23:39;12.93;;;7.93;;
14300;SDS011;7234;59.306;18.024;2024-02-23T06:26:06;16.87;;;8.90;;
14300;SDS011;7234;59.306;18.024;2024-02-23T06:28:33;18.83;;;10.70;;
14300;SDS011;7234;59.306;18.024;2024-02-23T06:31:02;16.20;;;9.00;;
14300;SDS011;7234;59.306;18.024;2024-02-23T06:33:31;19.80;;;9.30;;
14300;SDS011;7234;59.306;18.024;2024-02-23T06:35:59;18.50;;;10.33;;
14300;SDS011;7234;59.306;18.024;2024-02-23T06:38:27;13.43;;;9.47;;
14300;SDS011;7234;59.306;18.024;2024-02-23T06:40:54;15.33;;;10.37;;
14300;SDS011;7234;59.306;18.024;2024-02-23T06:43:22;14.53;;;8.67;;
14300;SDS011;7234;59.306;18.024;2024-02-23T06:45:49;15.57;;;9.03;;
14300;SDS011;7234;59.306;18.024;2024-02-23T06:48:16;15.93;;;10.03;;
14300;SDS011;7234;59.306;18.024;2024-02-23T06:50:45;16.00;;;9.03;;
14300;SDS011;7234;59.306;18.024;2024-02-23T06:53:14;14.80;;;9.40;;
14300;SDS011;7234;59.306;18.024;2024-02-23T06:55:41;14.33;;;9.40;;
14300;SDS011;7234;59.306;18.024;2024-02-23T06:58:08;15.73;;;9.07;;
14300;SDS011;7234;59.306;18.024;2024-02-23T07:00:35;14.27;;;8.93;;
14300;SDS011;7234;59.306;18.024;2024-02-23T07:03:03;15.80;;;9.53;;
14300;SDS011;7234;59.306;18.024;2024-02-23T07:05:31;11.43;;;8.10;;
14300;SDS011;7234;59.306;18.024;2024-02-23T07:08:02;13.43;;;9.40;;
14300;SDS011;7234;59.306;18.024;2024-02-23T07:10:29;16.00;;;8.70;;
14300;SDS011;7234;59.306;18.024;2024-02-23T07:12:56;17.23;;;10.23;;
14300;SDS011;7234;59.306;18.024;2024-02-23T07:15:23;13.20;;;10.33;;
14300;SDS011;7234;59.306;18.024;2024-02-23T07:17:51;16.73;;;9.23;;
14300;SDS011;7234;59.306;18.024;2024-02-23T07:20:18;12.90;;;8.77;;
14300;SDS011;7234;59.306;18.024;2024-02-23T07:22:46;12.53;;;8.77;;
14300;SDS011;7234;59.306;18.024;2024-02-23T07:25:17;13.30;;;7.87;;
14300;SDS011;7234;59.306;18.024;2024-02-23T07:27:45;13.77;;;8.50;;
14300;SDS011;7234;59.306;18.024;2024-02-23T07:30:14;15.37;;;8.63;;
14300;SDS011;7234;59.306;18.024;2024-02-23T07:32:41;14.13;;;7.33;;
14300;SDS011;7234;59.306;18.024;2024-02-23T07:35:09;10.80;;;7.53;;
14300;SDS011;7234;59.306;18.024;2024-02-23T07:37:36;11.40;;;7.47;;
14300;SDS011;7234;59.306;18.024;2024-02-23T07:40:03;12.13;;;8.00;;
14300;SDS011;7234;59.306;18.024;2024-02-23T07:42:33;12.37;;;7.40;;
14300;SDS011;7234;59.306;18.024;2024-02-23T07:45:01;10.40;;;7.17;;
14300;SDS011;7234;59.306;18.024;2024-02-23T07:47:29;12.47;;;7.70;;
14300;SDS011;7234;59.306;18.024;2024-02-23T07:49:57;10.27;;;7.07;;
14300;SDS011;7234;59.306;18.024;2024-02-23T07:52:25;9.97;;;6.90;;
14300;SDS011;7234;59.306;18.024;2024-02-23T07:54:52;9.13;;;6.50;;
14300;SDS011;7234;59.306;18.024;2024-02-23T07:57:19;10.50;;;7.00;;
14300;SDS011;7234;59.306;18.024;2024-02-23T07:59:48;8.83;;;6.37;;
14300;SDS011;7234;59.306;18.024;2024-02-23T08:02:15;9.33;;;6.50;;
14300;SDS011;7234;59.306;18.024;2024-02-23T08:04:42;10.20;;;6.70;;
14300;SDS011;7234;59.306;18.024;2024-02-23T08:07:10;9.87;;;7.40;;
14300;SDS011;7234;59.306;18.024;2024-02-23T08:09:40;13.20;;;7.77;;
14300;SDS011;7234;59.306;18.024;2024-02-23T08:12:07;14.03;;;7.83;;
14300;SDS011;7234;59.306;18.024;2024-02-23T08:14:34;13.83;;;9.53;;
14300;SDS011;7234;59.306;18.024;2024-02-23T08:17:03;16.37;;;9.97;;
14300;SDS011;7234;59.306;18.024;2024-02-23T08:19:30;14.77;;;9.20;;
14300;SDS011;7234;59.306;18.024;2024-02-23T08:21:57;14.00;;;9.37;;
14300;SDS011;7234;59.306;18.024;2024-02-23T08:24:25;12.57;;;8.87;;
14300;SDS011;7234;59.306;18.024;2024-02-23T08:26:52;12.40;;;8.47;;
14300;SDS011;7234;59.306;18.024;2024-02-23T08:29:20;12.83;;;8.03;;
14300;SDS011;7234;59.306;18.024;2024-02-23T08:31:47;12.30;;;8.17;;
14300;SDS011;7234;59.306;18.024;2024-02-23T08:34:16;12.17;;;9.07;;
14300;SDS011;7234;59.306;18.024;2024-02-23T08:36:43;12.80;;;8.20;;
14300;SDS011;7234;59.306;18.024;2024-02-23T08:39:11;9.63;;;7.23;;
14300;SDS011;7234;59.306;18.024;2024-02-23T08:41:38;11.93;;;6.80;;
14300;SDS011;7234;59.306;18.024;2024-02-23T08:44:05;9.83;;;6.87;;
14300;SDS011;7234;59.306;18.024;2024-02-23T08:46:32;7.83;;;6.07;;
14300;SDS011;7234;59.306;18.024;2024-02-23T08:48:59;9.30;;;5.57;;
14300;SDS011;7234;59.306;18.024;2024-02-23T08:51:36;8.70;;;5.77;;
14300;SDS011;7234;59.306;18.024;2024-02-23T08:54:03;8.17;;;6.63;;
14300;SDS011;7234;59.306;18.024;2024-02-23T08:56:31;5.97;;;4.60;;
14300;SDS011;7234;59.306;18.024;2024-02-23T08:59:02;6.50;;;5.17;;
14300;SDS011;7234;59.306;18.024;2024-02-23T09:01:30;7.23;;;5.10;;
14300;SDS011;7234;59.306;18.024;2024-02-23T09:03:57;8.27;;;5.30;;
14300;SDS011;7234;59.306;18.024;2024-02-23T09:06:24;9.20;;;5.67;;
14300;SDS011;7234;59.306;18.024;2024-02-23T09:08:53;7.70;;;5.53;;
14300;SDS011;7234;59.306;18.024;2024-02-23T09:11:20;9.63;;;5.50;;
14300;SDS011;7234;59.306;18.024;2024-02-23T09:13:47;7.93;;;5.80;;
14300;SDS011;7234;59.306;18.024;2024-02-23T09:16:14;11.30;;;6.17;;
14300;SDS011;7234;59.306;18.024;2024-02-23T09:18:41;8.27;;;6.37;;
14300;SDS011;7234;59.306;18.024;2024-02-23T09:21:09;9.30;;;6.00;;
14300;SDS011;7234;59.306;18.024;2024-02-23T09:23:39;8.60;;;6.30;;
14300;SDS011;7234;59.306;18.024;2024-02-23T09:26:10;8.93;;;6.30;;
14300;SDS011;7234;59.306;18.024;2024-02-23T09:28:37;10.43;;;7.10;;
14300;SDS011;7234;59.306;18.024;2024-02-23T09:31:06;10.67;;;6.30;;
14300;SDS011;7234;59.306;18.024;2024-02-23T09:33:33;9.27;;;6.57;;
14300;SDS011;7234;59.306;18.024;2024-02-23T09:36:00;7.77;;;6.33;;
14300;SDS011;7234;59.306;18.024;2024-02-23T09:38:26;12.57;;;7.03;;
14300;SDS011;7234;59.306;18.024;2024-02-23T09:40:53;9.10;;;7.17;;
14300;SDS011;7234;59.306;18.024;2024-02-23T09:43:22;9.77;;;6.87;;
14300;SDS011;7234;59.306;18.024;2024-02-23T09:45:55;9.97;;;6.10;;
14300;SDS011;7234;59.306;18.024;2024-02-23T09:48:23;10.80;;;7.27;;
14300;SDS011;7234;59.306;18.024;2024-02-23T09:50:50;9.43;;;6.37;;
14300;SDS011;7234;59.306;18.024;2024-02-23T09:53:21;9.83;;;5.67;;
14300;SDS011;7234;59.306;18.024;2024-02-23T09:55:49;8.70;;;5.33;;
14300;SDS011;7234;59.306;18.024;2024-02-23T09:58:17;7.93;;;4.87;;
14300;SDS011;7234;59.306;18.024;2024-02-23T10:00:47;6.43;;;5.53;;
14300;SDS011;7234;59.306;18.024;2024-02-23T10:03:15;4.37;;;3.97;;
14300;SDS011;7234;59.306;18.024;2024-02-23T10:05:42;7.20;;;3.67;;
14300;SDS011;7234;59.306;18.024;2024-02-23T10:08:11;5.60;;;3.33;;
14300;SDS011;7234;59.306;18.024;2024-02-23T10:10:40;7.53;;;3.47;;
14300;SDS011;7234;59.306;18.024;2024-02-23T10:13:08;4.80;;;3.30;;
14300;SDS011;7234;59.306;18.024;2024-02-23T10:15:35;4.83;;;3.80;;
14300;SDS011;7234;59.306;18.024;2024-02-23T10:18:04;4.13;;;2.80;;
14300;SDS011;7234;59.306;18.024;2024-02-23T10:20:31;4.73;;;2.63;;
14300;SDS011;7234;59.306;18.024;2024-02-23T10:22:59;3.60;;;2.33;;
14300;SDS011;7234;59.306;18.024;2024-02-23T10:25:27;3.53;;;2.20;;
14300;SDS011;7234;59.306;18.024;2024-02-23T10:27:54;2.95;;;1.75;;
14300;SDS011;7234;59.306;18.024;2024-02-23T10:30:22;4.15;;;1.98;;
14300;SDS011;7234;59.306;18.024;2024-02-23T10:32:49;3.05;;;1.85;;
14300;SDS011;7234;59.306;18.024;2024-02-23T10:35:21;2.67;;;1.70;;
14300;SDS011;7234;59.306;18.024;2024-02-23T10:37:49;2.45;;;1.88;;
14300;SDS011;7234;59.306;18.024;2024-02-23T10:40:18;1.90;;;1.45;;
14300;SDS011;7234;59.306;18.024;2024-02-23T10:42:49;2.58;;;1.50;;
14300;SDS011;7234;59.306;18.024;2024-02-23T10:45:19;3.80;;;1.60;;
14300;SDS011;7234;59.306;18.024;2024-02-23T10:47:47;1.88;;;1.17;;
14300;SDS011;7234;59.306;18.024;2024-02-23T10:50:15;2.58;;;1.38;;
14300;SDS011;7234;59.306;18.024;2024-02-23T10:52:46;2.30;;;1.33;;
14300;SDS011;7234;59.306;18.024;2024-02-23T10:55:16;2.30;;;1.10;;
14300;SDS011;7234;59.306;18.024;2024-02-23T10:57:44;2.35;;;1.08;;
14300;SDS011;7234;59.306;18.024;2024-02-23T11:00:14;1.58;;;1.25;;
14300;SDS011;7234;59.306;18.024;2024-02-23T11:02:50;2.83;;;1.00;;
14300;SDS011;7234;59.306;18.024;2024-02-23T11:05:19;1.23;;;1.13;;
14300;SDS011;7234;59.306;18.024;2024-02-23T11:07:48;1.77;;;1.00;;
14300;SDS011;7234;59.306;18.024;2024-02-23T11:10:16;1.88;;;0.77;;
14300;SDS011;7234;59.306;18.024;2024-02-23T11:12:56;1.10;;;0.93;;
14300;SDS011;7234;59.306;18.024;2024-02-23T11:15:27;1.67;;;0.90;;
14300;SDS011;7234;59.306;18.024;2024-02-23T11:17:55;1.73;;;0.70;;
14300;SDS011;7234;59.306;18.024;2024-02-23T11:20:22;1.48;;;0.90;;
14300;SDS011;7234;59.306;18.024;2024-02-23T11:22:54;0.98;;;0.60;;
14300;SDS011;7234;59.306;18.024;2024-02-23T11:25:21;2.53;;;0.88;;
14300;SDS011;7234;59.306;18.024;2024-02-23T11:27:53;1.67;;;0.80;;
14300;SDS011;7234;59.306;18.024;2024-02-23T11:30:20;1.75;;;0.80;;
14300;SDS011;7234;59.306;18.024;2024-02-23T11:32:47;2.55;;;0.70;;
14300;SDS011;7234;59.306;18.024;2024-02-23T11:35:19;1.70;;;1.30;;
14300;SDS011;7234;59.306;18.024;2024-02-23T19:42:15;4.37;;;1.60;;
14300;SDS011;7234;59.306;18.024;2024-02-23T19:44:43;4.47;;;1.53;;
14300;SDS011;7234;59.306;18.024;2024-02-23T19:47:11;3.97;;;1.50;;
14300;SDS011;7234;59.306;18.024;2024-02-23T19:49:39;4.63;;;1.30;;
14300;SDS011;7234;59.306;18.024;2024-02-23T19:52:06;4.73;;;1.10;;
14300;SDS011;7234;59.306;18.024;2024-02-23T19:54:35;1.37;;;1.00;;
14300;SDS011;7234;59.306;18.024;2024-02-23T19:57:02;5.10;;;1.10;;
14300;SDS011;7234;59.306;18.024;2024-02-23T19:59:31;3.27;;;1.20;;
14300;SDS011;7234;59.306;18.024;2024-02-23T20:02:01;5.10;;;1.20;;
14300;SDS011;7234;59.306;18.024;2024-02-23T20:04:29;4.37;;;1.10;;
14300;SDS011;7234;59.306;18.024;2024-02-23T20:06:58;3.10;;;1.50;;
14300;SDS011;7234;59.306;18.024;2024-02-23T20:09:28;5.77;;;1.07;;
14300;SDS011;7234;59.306;18.024;2024-02-23T20:11:55;3.30;;;1.17;;
14300;SDS011;7234;59.306;18.024;2024-02-23T20:14:22;5.33;;;1.23;;
14300;SDS011;7234;59.306;18.024;2024-02-23T20:16:55;7.97;;;1.67;;
14300;SDS011;7234;59.306;18.024;2024-02-23T20:19:22;2.93;;;1.00;;
14300;SDS011;7234;59.306;18.024;2024-02-23T20:21:52;1.73;;;0.93;;
14300;SDS011;7234;59.306;18.024;2024-02-23T20:24:19;2.83;;;1.00;;
14300;SDS011;7234;59.306;18.024;2024-02-23T20:26:47;4.63;;;1.27;;
14300;SDS011;7234;59.306;18.024;2024-02-23T20:29:14;3.93;;;1.10;;
14300;SDS011;7234;59.306;18.024;2024-02-23T20:31:41;3.55;;;0.95;;
14300;SDS011;7234;59.306;18.024;2024-02-23T20:34:10;2.25;;;0.90;;
14300;SDS011;7234;59.306;18.024;2024-02-23T20:36:38;3.22;;;1.25;;
14300;SDS011;7234;59.306;18.024;2024-02-23T20:39:05;2.20;;;0.90;;
14300;SDS011;7234;59.306;18.024;2024-02-23T20:41:35;2.33;;;1.00;;
14300;SDS011;7234;59.306;18.024;2024-02-23T20:44:02;4.15;;;1.48;;
14300;SDS011;7234;59.306;18.024;2024-02-23T20:46:36;2.22;;;1.08;;
14300;SDS011;7234;59.306;18.024;2024-02-23T20:49:03;4.93;;;1.23;;
14300;SDS011;7234;59.306;18.024;2024-02-23T20:51:31;3.47;;;1.10;;
14300;SDS011;7234;59.306;18.024;2024-02-23T20:54:02;4.57;;;1.05;;
14300;SDS011;7234;59.306;18.024;2024-02-23T20:56:31;3.65;;;1.27;;
14300;SDS011;7234;59.306;18.024;2024-02-23T20:58:59;3.83;;;1.02;;
14300;SDS011;7234;59.306;18.024;2024-02-23T21:01:26;2.78;;;0.95;;
14300;SDS011;7234;59.306;18.024;2024-02-23T21:03:56;1.67;;;0.90;;
14300;SDS011;7234;59.306;18.024;2024-02-23T21:06:26;4.03;;;1.25;;
14300;SDS011;7234;59.306;18.024;2024-02-23T21:08:54;3.40;;;1.02;;
14300;SDS011;7234;59.306;18.024;2024-02-23T21:11:21;4.22;;;1.10;;
14300;SDS011;7234;59.306;18.024;2024-02-23T21:13:48;3.70;;;1.10;;
14300;SDS011;7234;59.306;18.024;2024-02-23T21:16:15;2.70;;;1.05;;
14300;SDS011;7234;59.306;18.024;2024-02-23T21:18:42;2.15;;;1.05;;
14300;SDS011;7234;59.306;18.024;2024-02-23T21:21:09;2.67;;;1.10;;
14300;SDS011;7234;59.306;18.024;2024-02-23T21:23:36;3.22;;;1.20;;
14300;SDS011;7234;59.306;18.024;2024-02-23T21:26:05;2.72;;;0.93;;
14300;SDS011;7234;59.306;18.024;2024-02-23T21:28:32;1.65;;;0.90;;
14300;SDS011;7234;59.306;18.024;2024-02-23T21:30:59;3.03;;;0.93;;
14300;SDS011;7234;59.306;18.024;2024-02-23T21:33:29;2.58;;;1.10;;
14300;SDS011;7234;59.306;18.024;2024-02-23T21:35:56;2.83;;;1.20;;
14300;SDS011;7234;59.306;18.024;2024-02-23T21:38:26;3.03;;;1.23;;
14300;SDS011;7234;59.306;18.024;2024-02-23T21:40:53;3.85;;;1.17;;
14300;SDS011;7234;59.306;18.024;2024-02-23T21:43:21;4.70;;;2.30;;
14300;SDS011;7234;59.306;18.024;2024-02-23T21:45:51;5.15;;;1.50;;
14300;SDS011;7234;59.306;18.024;2024-02-23T21:48:18;2.22;;;1.00;;
14300;SDS011;7234;59.306;18.024;2024-02-23T21:50:45;1.70;;;1.00;;
14300;SDS011;7234;59.306;18.024;2024-02-23T21:53:15;4.18;;;1.20;;
14300;SDS011;7234;59.306;18.024;2024-02-23T21:55:42;2.33;;;1.20;;
14300;SDS011;7234;59.306;18.024;2024-02-23T21:58:09;2.57;;;1.17;;
14300;SDS011;7234;59.306;18.024;2024-02-23T22:00:38;1.20;;;1.00;;
14300;SDS011;7234;59.306;18.024;2024-02-23T22:03:05;1.23;;;0.85;;
14300;SDS011;7234;59.306;18.024;2024-02-23T22:05:32;1.70;;;1.10;;
14300;SDS011;7234;59.306;18.024;2024-02-23T22:07:59;3.75;;;0.95;;
14300;SDS011;7234;59.306;18.024;2024-02-23T22:10:27;2.60;;;0.98;;
14300;SDS011;7234;59.306;18.024;2024-02-23T22:12:54;4.30;;;1.20;;
14300;SDS011;7234;59.306;18.024;2024-02-23T22:15:21;3.65;;;1.35;;
14300;SDS011;7234;59.306;18.024;2024-02-23T22:17:52;3.05;;;1.00;;
14300;SDS011;7234;59.306;18.024;2024-02-23T22:20:19;3.55;;;1.10;;
14300;SDS011;7234;59.306;18.024;2024-02-23T22:22:46;1.60;;;0.73;;
14300;SDS011;7234;59.306;18.024;2024-02-23T22:25:13;2.90;;;1.17;;
14300;SDS011;7234;59.306;18.024;2024-02-23T22:27:40;1.90;;;0.93;;
14300;SDS011;7234;59.306;18.024;2024-02-23T22:30:07;3.15;;;0.80;;
14300;SDS011;7234;59.306;18.024;2024-02-23T22:32:37;3.35;;;1.05;;
14300;SDS011;7234;59.306;18.024;2024-02-23T22:35:06;3.90;;;1.25;;
14300;SDS011;7234;59.306;18.024;2024-02-23T22:37:34;2.78;;;1.48;;
14300;SDS011;7234;59.306;18.024;2024-02-23T22:40:04;2.92;;;1.25;;
14300;SDS011;7234;59.306;18.024;2024-02-23T22:42:33;1.75;;;1.00;;
14300;SDS011;7234;59.306;18.024;2024-02-23T22:45:00;3.38;;;0.88;;
14300;SDS011;7234;59.306;18.024;2024-02-23T22:47:27;1.80;;;1.17;;